This is the latest recevied weather packets stored in our database for station/object SP8C-10. If no packets are shown the sender has not sent any weather packets the latest 10 day(s).
| Time | Temp. | Humidity | Pressure | Rain* | Wind** | Luminosity | Snow |
|---|---|---|---|---|---|---|---|
| 1788412659 | 21.67° C | 39% | 1020.3 hPa | - | - | - | - |
| 1788410859 | 21.67° C | 37% | 1020.2 hPa | - | - | - | - |
| 1788409059 | 21.67° C | 37% | 1019.8 hPa | - | - | - | - |
| 1788407259 | 22.22° C | 36% | 1019.9 hPa | - | - | - | - |
| 1788405458 | 22.22° C | 36% | 1019.7 hPa | - | - | - | - |
| 1788403658 | 22.78° C | 36% | 1019.8 hPa | - | - | - | - |
| 1788401858 | 22.78° C | 36% | 1019.9 hPa | - | - | - | - |
| 1788376656 | 28.89° C | 33% | 1020.6 hPa | - | - | - | - |
| 1788374856 | 29.44° C | 32% | 1020.7 hPa | - | - | - | - |
| 1788373056 | 30° C | 32% | 1020.4 hPa | - | - | - | - |
| 1788369455 | 31.11° C | 31% | 1019.8 hPa | - | - | - | - |
| 1788367655 | 31.67° C | 31% | 1019.8 hPa | - | - | - | - |
| 1788365855 | 31.67° C | 32% | 1020 hPa | - | - | - | - |
| 1788359400 | 32.22° C | 31% | 1020.6 hPa | - | - | - | - |
| 1788357599 | 32.22° C | 31% | 1020.7 hPa | - | - | - | - |
| 1788355799 | 31.67° C | 33% | 1020.5 hPa | - | - | - | - |
| 1788351142 | 34.44° C | 29% | 1020.3 hPa | - | - | - | - |
| 1788349342 | 33.89° C | 29% | 1020.4 hPa | - | - | - | - |
| 1788347542 | 33.33° C | 30% | 1020.8 hPa | - | - | - | - |
| 1788343941 | 31.67° C | 34% | 1021.2 hPa | - | - | - | - |
| 1788342141 | 30.56° C | 35% | 1021.5 hPa | - | - | - | - |
| 1788340341 | 30° C | 37% | 1021.4 hPa | - | - | - | - |
| 1788338541 | 28.89° C | 39% | 1021.6 hPa | - | - | - | - |
| 1788336741 | 27.22° C | 41% | 1021.7 hPa | - | - | - | - |
| 1788334941 | 26.11° C | 41% | 1021.7 hPa | - | - | - | - |
* Rain since midnight (hover to see other rain measurements)
** Current wind speed in m/s (hover to see current wind gust speed)